Etusivu
METAR-TAF:

METAR-TAF

Lentoasemat :

Pittsfield Penstone Municipal Airport

Pittsfield, Illinois, Yhdysvallat

Leveyspiiri: 39-38-20N, Pituuspiiri: 090-46-42W, korkeus merenpinnasta: 216 m

Tämänhetkinen sää

Tämä raportti tehtiin 19 minuuttia sitten, kello 14.35 UTC
Tuuli 6 kn lounaasta
Lämpötila 29°C
Kosteus 84%
Ilmanpaine 1015 hPa
Näkyvyys: 16.1 km
selkeää

METAR: KPPQ 101435Z AUTO 22006KT 10SM CLR 29/26 A2997 RMK AO2 T02900257

Aika: 09:54 (14:54 UTC)


TAF: puuttuu

Säähavainnot ja -ennusteet yli 4000 lentoasemalta (METAR- ja TAF-raportit).

Käytössä olevat sääasemat on merkitty karttaan keltaisilla ja punaisilla pisteillä.

Aseta hiiri pisteen päälle nähdäksesi sääaseman nimen.

Klikkaa sitten nähdäksesi säähavainnot ja -ennusteet.

Kartan vaihtaminen: klikkaa mustalla rastilla varustettuja vihreitä pisteitä, niin voit zoomata sisään; viivalla varustettua vihreää pistettä, niin voit zoomata ulos tai vihreitä nuolia, niin pääset viereisille kartoille.


METAR-TAF: